SGAS/ASU METAR and TAF weather

Enter ICAO airport designator
Station Type Date Time Source
SGAS METAR 2019/08/22 16:00 UTC NOAA

SGAS 221600Z 18003KT 5000 FU NSC 23/11 Q1020


Station Type Date Time Source
SGAS Decoded METAR 2019/08/22 16:00 UTC NOAA

Station name not available
Aug 22, 2019 - 12:00 PM EDT / 2019.08.22 1600 UTC
Wind: from the S (180 degrees) at 3 MPH (3 KT):0
Visibility: 3 mile(s):0
Weather: smoke
Temperature: 73 F (23 C)
Dew Point: 51 F (11 C)
Relative Humidity: 46%
Pressure (altimeter): 30.12 in. Hg (1020 hPa)
ob: SGAS 221600Z 18003KT 5000 FU NSC 23/11 Q1020
cycle: 16

Station Type Date Time Source
SGAS TAF 2019/08/22 12:36 UTC NOAA

TAF TAF SGAS 221035Z 2212/2312 15007KT 9999 BKN025 TX25/2218Z TN09/2309Z
BECMG 2222/2301 18012KT CAVOK
BECMG 2309/2312 15010KT

Example: see airport list